sensor_id;sensor_type;location;lat;lon;timestamp;temperature;humidity
23783;DHT22;12071;50.850;4.446;2023-04-25T00:02:12;9.60;99.90
23783;DHT22;12071;50.850;4.446;2023-04-25T00:04:38;9.50;20.20
23783;DHT22;12071;50.850;4.446;2023-04-25T00:07:04;9.70;99.90
23783;DHT22;12071;50.850;4.446;2023-04-25T00:09:30;10.00;99.90
23783;DHT22;12071;50.850;4.446;2023-04-25T00:11:56;9.70;99.90
23783;DHT22;12071;50.850;4.446;2023-04-25T00:14:21;9.60;1.00
23783;DHT22;12071;50.850;4.446;2023-04-25T00:16:48;9.40;1.00
23783;DHT22;12071;50.850;4.446;2023-04-25T00:19:14;9.40;99.90
23783;DHT22;12071;50.850;4.446;2023-04-25T00:21:40;9.60;1.00
23783;DHT22;12071;50.850;4.446;2023-04-25T00:24:06;9.60;99.90
23783;DHT22;12071;50.850;4.446;2023-04-25T00:26:34;9.70;1.00
23783;DHT22;12071;50.850;4.446;2023-04-25T00:29:00;9.70;99.90
23783;DHT22;12071;50.850;4.446;2023-04-25T00:31:26;9.50;93.70
23783;DHT22;12071;50.850;4.446;2023-04-25T00:33:52;9.40;99.90
23783;DHT22;12071;50.850;4.446;2023-04-25T00:36:18;9.20;1.00
23783;DHT22;12071;50.850;4.446;2023-04-25T00:38:44;9.30;99.90
23783;DHT22;12071;50.850;4.446;2023-04-25T00:41:10;9.20;99.90
23783;DHT22;12071;50.850;4.446;2023-04-25T00:43:36;9.40;1.00
23783;DHT22;12071;50.850;4.446;2023-04-25T00:46:05;9.50;99.90
23783;DHT22;12071;50.850;4.446;2023-04-25T00:48:30;9.60;99.90
23783;DHT22;12071;50.850;4.446;2023-04-25T00:50:59;9.50;94.50
23783;DHT22;12071;50.850;4.446;2023-04-25T00:53:26;9.30;99.90
23783;DHT22;12071;50.850;4.446;2023-04-25T00:55:53;9.30;1.00
23783;DHT22;12071;50.850;4.446;2023-04-25T00:58:20;9.40;99.90
23783;DHT22;12071;50.850;4.446;2023-04-25T01:00:48;9.60;99.90
23783;DHT22;12071;50.850;4.446;2023-04-25T01:03:15;9.50;99.90
23783;DHT22;12071;50.850;4.446;2023-04-25T01:05:46;9.40;1.00
23783;DHT22;12071;50.850;4.446;2023-04-25T01:08:12;9.20;1.00
23783;DHT22;12071;50.850;4.446;2023-04-25T01:10:38;9.30;53.10
23783;DHT22;12071;50.850;4.446;2023-04-25T01:13:04;9.50;99.90
23783;DHT22;12071;50.850;4.446;2023-04-25T01:15:30;9.50;1.00
23783;DHT22;12071;50.850;4.446;2023-04-25T01:17:57;9.30;99.90
23783;DHT22;12071;50.850;4.446;2023-04-25T01:20:24;9.30;36.90
23783;DHT22;12071;50.850;4.446;2023-04-25T01:22:53;9.10;99.90
23783;DHT22;12071;50.850;4.446;2023-04-25T01:25:19;9.20;99.90
23783;DHT22;12071;50.850;4.446;2023-04-25T01:27:46;9.50;99.90
23783;DHT22;12071;50.850;4.446;2023-04-25T01:30:12;9.20;99.90
23783;DHT22;12071;50.850;4.446;2023-04-25T01:32:38;9.30;99.90
23783;DHT22;12071;50.850;4.446;2023-04-25T01:35:06;9.20;99.90
23783;DHT22;12071;50.850;4.446;2023-04-25T01:37:38;9.30;99.90
23783;DHT22;12071;50.850;4.446;2023-04-25T01:40:06;9.10;99.90
23783;DHT22;12071;50.850;4.446;2023-04-25T01:42:33;9.20;99.90
23783;DHT22;12071;50.850;4.446;2023-04-25T01:44:59;9.20;99.90
23783;DHT22;12071;50.850;4.446;2023-04-25T01:47:25;9.00;99.90
23783;DHT22;12071;50.850;4.446;2023-04-25T01:49:51;9.00;99.90
23783;DHT22;12071;50.850;4.446;2023-04-25T01:52:17;9.10;99.90
23783;DHT22;12071;50.850;4.446;2023-04-25T01:54:43;9.20;99.90
23783;DHT22;12071;50.850;4.446;2023-04-25T01:57:13;9.20;1.00
23783;DHT22;12071;50.850;4.446;2023-04-25T01:59:39;9.50;1.00
23783;DHT22;12071;50.850;4.446;2023-04-25T02:02:05;9.40;1.00
23783;DHT22;12071;50.850;4.446;2023-04-25T02:04:31;9.50;1.00
23783;DHT22;12071;50.850;4.446;2023-04-25T02:06:57;9.50;1.00
23783;DHT22;12071;50.850;4.446;2023-04-25T02:09:22;9.10;1.00
23783;DHT22;12071;50.850;4.446;2023-04-25T02:11:49;9.10;1.00
23783;DHT22;12071;50.850;4.446;2023-04-25T02:14:17;9.30;9.20
23783;DHT22;12071;50.850;4.446;2023-04-25T02:16:43;9.40;17.50
23783;DHT22;12071;50.850;4.446;2023-04-25T02:19:09;9.40;33.70
23783;DHT22;12071;50.850;4.446;2023-04-25T02:21:35;9.50;22.70
23783;DHT22;12071;50.850;4.446;2023-04-25T02:24:01;9.30;1.00
23783;DHT22;12071;50.850;4.446;2023-04-25T02:26:27;9.50;1.10
23783;DHT22;12071;50.850;4.446;2023-04-25T02:28:53;9.30;1.00
23783;DHT22;12071;50.850;4.446;2023-04-25T02:31:18;9.50;1.00
23783;DHT22;12071;50.850;4.446;2023-04-25T02:33:44;9.50;14.50
23783;DHT22;12071;50.850;4.446;2023-04-25T02:36:10;9.70;1.00
23783;DHT22;12071;50.850;4.446;2023-04-25T02:38:35;9.90;1.00
23783;DHT22;12071;50.850;4.446;2023-04-25T02:41:01;10.00;1.00
23783;DHT22;12071;50.850;4.446;2023-04-25T02:43:27;10.00;1.00
23783;DHT22;12071;50.850;4.446;2023-04-25T02:45:53;9.90;1.00
23783;DHT22;12071;50.850;4.446;2023-04-25T02:48:18;9.70;1.00
23783;DHT22;12071;50.850;4.446;2023-04-25T02:50:44;9.70;1.00
23783;DHT22;12071;50.850;4.446;2023-04-25T02:53:10;9.60;1.00
23783;DHT22;12071;50.850;4.446;2023-04-25T02:55:36;9.50;1.00
23783;DHT22;12071;50.850;4.446;2023-04-25T02:58:02;9.60;6.10
23783;DHT22;12071;50.850;4.446;2023-04-25T03:00:28;9.70;1.00
23783;DHT22;12071;50.850;4.446;2023-04-25T03:02:53;9.30;1.00
23783;DHT22;12071;50.850;4.446;2023-04-25T03:05:21;9.50;5.10
23783;DHT22;12071;50.850;4.446;2023-04-25T03:07:46;9.50;10.00
23783;DHT22;12071;50.850;4.446;2023-04-25T03:10:12;9.60;1.00
23783;DHT22;12071;50.850;4.446;2023-04-25T03:12:38;9.40;1.00
23783;DHT22;12071;50.850;4.446;2023-04-25T03:15:04;9.20;23.30
23783;DHT22;12071;50.850;4.446;2023-04-25T03:17:30;8.80;56.20
23783;DHT22;12071;50.850;4.446;2023-04-25T03:19:57;8.80;99.90
23783;DHT22;12071;50.850;4.446;2023-04-25T03:22:26;8.70;99.90
23783;DHT22;12071;50.850;4.446;2023-04-25T03:24:51;8.80;99.90
23783;DHT22;12071;50.850;4.446;2023-04-25T03:27:17;8.80;99.90
23783;DHT22;12071;50.850;4.446;2023-04-25T03:29:43;8.90;99.90
23783;DHT22;12071;50.850;4.446;2023-04-25T03:32:09;8.80;99.90
23783;DHT22;12071;50.850;4.446;2023-04-25T03:34:34;8.90;99.90
23783;DHT22;12071;50.850;4.446;2023-04-25T03:37:00;8.90;99.90
23783;DHT22;12071;50.850;4.446;2023-04-25T03:39:26;8.70;99.90
23783;DHT22;12071;50.850;4.446;2023-04-25T03:41:52;8.60;99.90
23783;DHT22;12071;50.850;4.446;2023-04-25T03:44:18;8.40;99.90
23783;DHT22;12071;50.850;4.446;2023-04-25T03:46:43;8.60;99.90
23783;DHT22;12071;50.850;4.446;2023-04-25T03:49:09;8.70;99.90
23783;DHT22;12071;50.850;4.446;2023-04-25T03:51:35;8.80;99.90
23783;DHT22;12071;50.850;4.446;2023-04-25T03:54:01;8.80;99.90
23783;DHT22;12071;50.850;4.446;2023-04-25T03:56:26;8.70;99.90
23783;DHT22;12071;50.850;4.446;2023-04-25T03:58:52;8.60;99.90
23783;DHT22;12071;50.850;4.446;2023-04-25T04:01:18;8.60;99.90
23783;DHT22;12071;50.850;4.446;2023-04-25T04:03:44;8.50;99.90
23783;DHT22;12071;50.850;4.446;2023-04-25T04:06:10;8.40;99.90
23783;DHT22;12071;50.850;4.446;2023-04-25T04:08:36;8.20;99.90
23783;DHT22;12071;50.850;4.446;2023-04-25T04:11:02;8.20;99.90
23783;DHT22;12071;50.850;4.446;2023-04-25T04:13:28;8.50;99.90
23783;DHT22;12071;50.850;4.446;2023-04-25T04:15:55;8.30;51.00
23783;DHT22;12071;50.850;4.446;2023-04-25T04:18:21;8.40;51.60
23783;DHT22;12071;50.850;4.446;2023-04-25T04:20:47;8.50;54.30
23783;DHT22;12071;50.850;4.446;2023-04-25T04:23:13;8.50;76.90
23783;DHT22;12071;50.850;4.446;2023-04-25T04:25:39;8.60;12.80
23783;DHT22;12071;50.850;4.446;2023-04-25T04:28:06;8.70;1.00
23783;DHT22;12071;50.850;4.446;2023-04-25T04:30:32;8.70;1.00
23783;DHT22;12071;50.850;4.446;2023-04-25T04:33:02;8.70;29.30
23783;DHT22;12071;50.850;4.446;2023-04-25T04:35:28;9.00;1.00
23783;DHT22;12071;50.850;4.446;2023-04-25T04:37:54;8.80;1.00
23783;DHT22;12071;50.850;4.446;2023-04-25T04:40:20;8.90;20.40
23783;DHT22;12071;50.850;4.446;2023-04-25T04:42:47;9.00;1.00
23783;DHT22;12071;50.850;4.446;2023-04-25T04:45:13;8.70;1.00
23783;DHT22;12071;50.850;4.446;2023-04-25T04:47:43;8.40;1.00
23783;DHT22;12071;50.850;4.446;2023-04-25T04:50:10;8.60;1.00
23783;DHT22;12071;50.850;4.446;2023-04-25T04:52:38;8.70;1.00
23783;DHT22;12071;50.850;4.446;2023-04-25T04:55:05;8.70;11.40
23783;DHT22;12071;50.850;4.446;2023-04-25T04:57:31;8.70;20.10
23783;DHT22;12071;50.850;4.446;2023-04-25T04:59:58;8.90;8.10
23783;DHT22;12071;50.850;4.446;2023-04-25T05:02:24;8.80;1.00
23783;DHT22;12071;50.850;4.446;2023-04-25T05:04:52;9.00;18.50
23783;DHT22;12071;50.850;4.446;2023-04-25T05:07:18;8.90;34.70
23783;DHT22;12071;50.850;4.446;2023-04-25T05:09:44;9.00;69.10
23783;DHT22;12071;50.850;4.446;2023-04-25T05:12:10;9.10;12.80
23783;DHT22;12071;50.850;4.446;2023-04-25T05:14:36;9.00;1.40
23783;DHT22;12071;50.850;4.446;2023-04-25T05:17:02;8.90;16.80
23783;DHT22;12071;50.850;4.446;2023-04-25T05:19:32;8.90;72.70
23783;DHT22;12071;50.850;4.446;2023-04-25T05:21:58;9.10;86.40
23783;DHT22;12071;50.850;4.446;2023-04-25T05:24:23;8.80;22.80
23783;DHT22;12071;50.850;4.446;2023-04-25T05:26:49;8.30;42.60
23783;DHT22;12071;50.850;4.446;2023-04-25T05:29:15;8.50;99.90
23783;DHT22;12071;50.850;4.446;2023-04-25T05:31:41;8.60;28.20
23783;DHT22;12071;50.850;4.446;2023-04-25T05:34:07;8.30;17.50
23783;DHT22;12071;50.850;4.446;2023-04-25T05:36:33;8.50;19.40
23783;DHT22;12071;50.850;4.446;2023-04-25T05:38:59;8.70;1.00
23783;DHT22;12071;50.850;4.446;2023-04-25T05:41:24;8.70;1.00
23783;DHT22;12071;50.850;4.446;2023-04-25T05:43:50;8.60;1.00
23783;DHT22;12071;50.850;4.446;2023-04-25T05:46:16;8.40;1.00
23783;DHT22;12071;50.850;4.446;2023-04-25T05:48:47;8.40;1.00
23783;DHT22;12071;50.850;4.446;2023-04-25T05:51:13;8.60;1.00
23783;DHT22;12071;50.850;4.446;2023-04-25T05:53:39;8.60;1.00
23783;DHT22;12071;50.850;4.446;2023-04-25T05:56:05;8.60;7.40
23783;DHT22;12071;50.850;4.446;2023-04-25T05:58:30;8.60;1.00
23783;DHT22;12071;50.850;4.446;2023-04-25T06:00:56;8.70;29.10
23783;DHT22;12071;50.850;4.446;2023-04-25T06:03:22;8.80;42.00
23783;DHT22;12071;50.850;4.446;2023-04-25T06:05:48;8.90;24.90
23783;DHT22;12071;50.850;4.446;2023-04-25T06:08:13;9.00;6.80
23783;DHT22;12071;50.850;4.446;2023-04-25T06:10:39;8.90;1.00
23783;DHT22;12071;50.850;4.446;2023-04-25T06:13:05;8.90;10.90
23783;DHT22;12071;50.850;4.446;2023-04-25T06:15:31;9.00;1.00
23783;DHT22;12071;50.850;4.446;2023-04-25T06:18:00;9.00;1.00
23783;DHT22;12071;50.850;4.446;2023-04-25T06:20:26;9.00;1.00
23783;DHT22;12071;50.850;4.446;2023-04-25T06:22:52;9.00;9.90
23783;DHT22;12071;50.850;4.446;2023-04-25T06:25:18;9.40;25.90
23783;DHT22;12071;50.850;4.446;2023-04-25T06:27:44;9.70;1.00
23783;DHT22;12071;50.850;4.446;2023-04-25T06:30:10;9.80;1.00
23783;DHT22;12071;50.850;4.446;2023-04-25T06:32:38;9.80;1.00
23783;DHT22;12071;50.850;4.446;2023-04-25T06:35:04;9.50;99.90
23783;DHT22;12071;50.850;4.446;2023-04-25T06:37:30;9.50;1.00
23783;DHT22;12071;50.850;4.446;2023-04-25T06:39:56;9.20;1.00
23783;DHT22;12071;50.850;4.446;2023-04-25T06:42:22;9.00;1.00
23783;DHT22;12071;50.850;4.446;2023-04-25T06:44:48;8.90;1.00
23783;DHT22;12071;50.850;4.446;2023-04-25T06:47:14;8.70;1.00
23783;DHT22;12071;50.850;4.446;2023-04-25T06:49:42;8.40;1.00
23783;DHT22;12071;50.850;4.446;2023-04-25T06:52:08;8.60;9.20
23783;DHT22;12071;50.850;4.446;2023-04-25T06:54:34;8.40;1.00
23783;DHT22;12071;50.850;4.446;2023-04-25T06:56:59;8.20;1.00
23783;DHT22;12071;50.850;4.446;2023-04-25T06:59:26;8.30;1.00
23783;DHT22;12071;50.850;4.446;2023-04-25T07:01:52;8.50;1.00
23783;DHT22;12071;50.850;4.446;2023-04-25T07:04:17;8.80;1.00
23783;DHT22;12071;50.850;4.446;2023-04-25T07:06:44;9.00;1.00
23783;DHT22;12071;50.850;4.446;2023-04-25T07:09:12;8.80;99.90
23783;DHT22;12071;50.850;4.446;2023-04-25T07:11:38;9.00;1.00
23783;DHT22;12071;50.850;4.446;2023-04-25T07:14:04;8.70;99.90
23783;DHT22;12071;50.850;4.446;2023-04-25T07:16:29;8.80;99.90
23783;DHT22;12071;50.850;4.446;2023-04-25T07:18:55;9.00;99.90
23783;DHT22;12071;50.850;4.446;2023-04-25T07:21:21;9.10;99.90
23783;DHT22;12071;50.850;4.446;2023-04-25T07:23:47;8.90;99.90
23783;DHT22;12071;50.850;4.446;2023-04-25T07:26:12;8.70;1.00
23783;DHT22;12071;50.850;4.446;2023-04-25T07:28:38;8.70;99.90
23783;DHT22;12071;50.850;4.446;2023-04-25T07:31:04;8.70;99.90
23783;DHT22;12071;50.850;4.446;2023-04-25T07:33:30;8.70;27.10
23783;DHT22;12071;50.850;4.446;2023-04-25T07:35:56;8.60;1.00
23783;DHT22;12071;50.850;4.446;2023-04-25T07:38:22;8.90;1.00
23783;DHT22;12071;50.850;4.446;2023-04-25T07:40:48;9.20;1.00
23783;DHT22;12071;50.850;4.446;2023-04-25T07:43:14;9.30;99.90
23783;DHT22;12071;50.850;4.446;2023-04-25T07:45:43;9.10;1.00
23783;DHT22;12071;50.850;4.446;2023-04-25T07:48:13;9.00;1.00
23783;DHT22;12071;50.850;4.446;2023-04-25T07:50:41;8.80;1.00
23783;DHT22;12071;50.850;4.446;2023-04-25T07:53:07;8.90;1.00
23783;DHT22;12071;50.850;4.446;2023-04-25T07:55:32;8.90;1.00
23783;DHT22;12071;50.850;4.446;2023-04-25T07:57:58;8.80;1.00
23783;DHT22;12071;50.850;4.446;2023-04-25T08:00:24;8.90;99.90
23783;DHT22;12071;50.850;4.446;2023-04-25T08:02:49;9.00;99.90
23783;DHT22;12071;50.850;4.446;2023-04-25T08:05:16;9.10;99.90
23783;DHT22;12071;50.850;4.446;2023-04-25T08:07:42;9.30;99.90
23783;DHT22;12071;50.850;4.446;2023-04-25T08:10:09;9.50;99.90
23783;DHT22;12071;50.850;4.446;2023-04-25T08:12:34;9.60;99.90
23783;DHT22;12071;50.850;4.446;2023-04-25T08:15:00;9.40;99.90
23783;DHT22;12071;50.850;4.446;2023-04-25T08:17:25;9.50;1.00
23783;DHT22;12071;50.850;4.446;2023-04-25T08:19:51;9.40;1.00
23783;DHT22;12071;50.850;4.446;2023-04-25T08:22:17;9.30;99.90
23783;DHT22;12071;50.850;4.446;2023-04-25T08:24:42;9.50;99.90
23783;DHT22;12071;50.850;4.446;2023-04-25T08:27:08;9.60;99.90
23783;DHT22;12071;50.850;4.446;2023-04-25T08:29:34;9.70;99.90
23783;DHT22;12071;50.850;4.446;2023-04-25T08:32:00;9.50;99.90
23783;DHT22;12071;50.850;4.446;2023-04-25T08:34:26;9.50;99.90
23783;DHT22;12071;50.850;4.446;2023-04-25T08:36:52;9.40;99.90
23783;DHT22;12071;50.850;4.446;2023-04-25T08:39:18;9.40;99.90
23783;DHT22;12071;50.850;4.446;2023-04-25T08:41:44;9.60;99.90
23783;DHT22;12071;50.850;4.446;2023-04-25T08:44:11;9.60;99.90
23783;DHT22;12071;50.850;4.446;2023-04-25T08:46:38;9.50;1.00
23783;DHT22;12071;50.850;4.446;2023-04-25T08:49:07;9.80;99.90
23783;DHT22;12071;50.850;4.446;2023-04-25T08:51:36;10.20;99.90
23783;DHT22;12071;50.850;4.446;2023-04-25T08:54:20;10.20;99.90
23783;DHT22;12071;50.850;4.446;2023-04-25T08:56:49;9.90;1.00
23783;DHT22;12071;50.850;4.446;2023-04-25T08:59:15;9.70;1.00
23783;DHT22;12071;50.850;4.446;2023-04-25T09:01:40;9.60;1.00
23783;DHT22;12071;50.850;4.446;2023-04-25T09:04:06;9.70;99.90
23783;DHT22;12071;50.850;4.446;2023-04-25T09:06:32;9.80;1.00
23783;DHT22;12071;50.850;4.446;2023-04-25T09:09:07;10.10;1.00
23783;DHT22;12071;50.850;4.446;2023-04-25T09:11:35;10.00;1.00
23783;DHT22;12071;50.850;4.446;2023-04-25T09:14:18;10.00;1.00
23783;DHT22;12071;50.850;4.446;2023-04-25T09:19:34;10.70;99.90
23783;DHT22;12071;50.850;4.446;2023-04-25T09:22:06;10.60;1.00
23783;DHT22;12071;50.850;4.446;2023-04-25T09:24:50;10.50;99.90
23783;DHT22;12071;50.850;4.446;2023-04-25T09:27:20;10.60;99.90
23783;DHT22;12071;50.850;4.446;2023-04-25T09:29:57;10.50;99.90
23783;DHT22;12071;50.850;4.446;2023-04-25T09:32:24;10.40;1.00
23783;DHT22;12071;50.850;4.446;2023-04-25T09:34:52;10.40;1.00
23783;DHT22;12071;50.850;4.446;2023-04-25T09:37:23;10.30;1.00
23783;DHT22;12071;50.850;4.446;2023-04-25T09:39:50;10.50;99.90
23783;DHT22;12071;50.850;4.446;2023-04-25T09:42:17;10.70;1.00
23783;DHT22;12071;50.850;4.446;2023-04-25T09:44:44;10.90;1.00
23783;DHT22;12071;50.850;4.446;2023-04-25T09:47:12;10.90;99.90
23783;DHT22;12071;50.850;4.446;2023-04-25T09:49:40;11.10;99.90
23783;DHT22;12071;50.850;4.446;2023-04-25T09:52:13;10.80;99.90
23783;DHT22;12071;50.850;4.446;2023-04-25T09:54:40;10.80;99.90
23783;DHT22;12071;50.850;4.446;2023-04-25T09:57:11;10.80;99.90
23783;DHT22;12071;50.850;4.446;2023-04-25T09:59:53;11.10;99.90
23783;DHT22;12071;50.850;4.446;2023-04-25T10:02:20;10.90;99.90
23783;DHT22;12071;50.850;4.446;2023-04-25T10:04:49;10.80;99.90
23783;DHT22;12071;50.850;4.446;2023-04-25T10:07:18;10.70;99.90
23783;DHT22;12071;50.850;4.446;2023-04-25T10:09:48;10.00;99.90
23783;DHT22;12071;50.850;4.446;2023-04-25T10:12:15;10.00;99.90
23783;DHT22;12071;50.850;4.446;2023-04-25T10:14:42;10.30;99.90
23783;DHT22;12071;50.850;4.446;2023-04-25T10:17:10;10.70;1.00
23783;DHT22;12071;50.850;4.446;2023-04-25T10:19:36;11.20;99.90
23783;DHT22;12071;50.850;4.446;2023-04-25T10:22:29;11.30;99.90
23783;DHT22;12071;50.850;4.446;2023-04-25T10:24:56;11.70;99.90
23783;DHT22;12071;50.850;4.446;2023-04-25T10:27:22;11.50;31.30
23783;DHT22;12071;50.850;4.446;2023-04-25T10:30:24;11.50;84.20
23783;DHT22;12071;50.850;4.446;2023-04-25T10:32:50;11.80;48.80
23783;DHT22;12071;50.850;4.446;2023-04-25T10:40:32;12.00;1.00
23783;DHT22;12071;50.850;4.446;2023-04-25T10:46:01;11.80;99.90
23783;DHT22;12071;50.850;4.446;2023-04-25T10:48:28;11.80;99.90
23783;DHT22;12071;50.850;4.446;2023-04-25T10:51:28;11.30;99.90
23783;DHT22;12071;50.850;4.446;2023-04-25T10:56:29;11.70;99.90
23783;DHT22;12071;50.850;4.446;2023-04-25T10:59:14;11.60;99.90
23783;DHT22;12071;50.850;4.446;2023-04-25T11:04:06;11.80;99.90
23783;DHT22;12071;50.850;4.446;2023-04-25T11:09:29;11.90;99.90
23783;DHT22;12071;50.850;4.446;2023-04-25T11:11:56;11.70;99.90
23783;DHT22;12071;50.850;4.446;2023-04-25T11:14:22;11.60;99.90
23783;DHT22;12071;50.850;4.446;2023-04-25T11:16:58;11.70;99.90
23783;DHT22;12071;50.850;4.446;2023-04-25T11:19:25;11.40;99.90
23783;DHT22;12071;50.850;4.446;2023-04-25T11:21:55;11.30;99.90
23783;DHT22;12071;50.850;4.446;2023-04-25T11:24:32;11.40;1.00
23783;DHT22;12071;50.850;4.446;2023-04-25T11:26:59;11.60;1.00
23783;DHT22;12071;50.850;4.446;2023-04-25T11:29:28;11.60;99.90
23783;DHT22;12071;50.850;4.446;2023-04-25T11:31:55;11.40;99.90
23783;DHT22;12071;50.850;4.446;2023-04-25T11:34:23;11.60;1.00
23783;DHT22;12071;50.850;4.446;2023-04-25T11:36:50;11.70;99.90
23783;DHT22;12071;50.850;4.446;2023-04-25T11:39:18;11.80;99.90
23783;DHT22;12071;50.850;4.446;2023-04-25T11:41:44;11.80;99.90
23783;DHT22;12071;50.850;4.446;2023-04-25T11:44:10;11.40;99.90
23783;DHT22;12071;50.850;4.446;2023-04-25T11:46:35;11.70;99.90
23783;DHT22;12071;50.850;4.446;2023-04-25T11:49:02;11.50;99.90
23783;DHT22;12071;50.850;4.446;2023-04-25T11:51:30;11.50;99.90
23783;DHT22;12071;50.850;4.446;2023-04-25T11:53:57;11.70;99.90
23783;DHT22;12071;50.850;4.446;2023-04-25T11:56:22;11.80;99.90
23783;DHT22;12071;50.850;4.446;2023-04-25T11:58:58;11.80;99.90
23783;DHT22;12071;50.850;4.446;2023-04-25T12:01:37;11.80;99.90
23783;DHT22;12071;50.850;4.446;2023-04-25T12:04:20;12.40;99.90
23783;DHT22;12071;50.850;4.446;2023-04-25T12:06:48;12.10;99.90
23783;DHT22;12071;50.850;4.446;2023-04-25T12:09:16;11.90;99.90
23783;DHT22;12071;50.850;4.446;2023-04-25T12:11:44;11.60;99.90
23783;DHT22;12071;50.850;4.446;2023-04-25T12:14:11;11.80;99.90
23783;DHT22;12071;50.850;4.446;2023-04-25T12:16:45;12.50;99.90
23783;DHT22;12071;50.850;4.446;2023-04-25T12:19:14;12.30;99.90
23783;DHT22;12071;50.850;4.446;2023-04-25T12:21:41;12.10;99.90
23783;DHT22;12071;50.850;4.446;2023-04-25T12:24:11;11.90;99.90
23783;DHT22;12071;50.850;4.446;2023-04-25T12:27:04;11.90;99.90
23783;DHT22;12071;50.850;4.446;2023-04-25T12:29:33;11.70;99.90
23783;DHT22;12071;50.850;4.446;2023-04-25T12:31:59;11.70;99.90
23783;DHT22;12071;50.850;4.446;2023-04-25T12:34:27;12.10;99.90
23783;DHT22;12071;50.850;4.446;2023-04-25T12:36:54;12.10;99.90
23783;DHT22;12071;50.850;4.446;2023-04-25T12:39:21;12.20;99.90
23783;DHT22;12071;50.850;4.446;2023-04-25T12:41:48;12.90;99.90
23783;DHT22;12071;50.850;4.446;2023-04-25T12:44:14;13.10;99.90
23783;DHT22;12071;50.850;4.446;2023-04-25T12:46:40;12.80;99.90
23783;DHT22;12071;50.850;4.446;2023-04-25T12:49:06;12.40;99.90
23783;DHT22;12071;50.850;4.446;2023-04-25T12:51:35;12.40;99.90
23783;DHT22;12071;50.850;4.446;2023-04-25T12:54:02;12.40;99.90
23783;DHT22;12071;50.850;4.446;2023-04-25T12:56:29;12.60;99.90
23783;DHT22;12071;50.850;4.446;2023-04-25T12:58:55;12.90;99.90
23783;DHT22;12071;50.850;4.446;2023-04-25T13:01:21;12.80;99.90
23783;DHT22;12071;50.850;4.446;2023-04-25T13:03:47;12.50;99.90
23783;DHT22;12071;50.850;4.446;2023-04-25T13:06:13;12.10;99.90
23783;DHT22;12071;50.850;4.446;2023-04-25T13:08:39;12.60;99.90
23783;DHT22;12071;50.850;4.446;2023-04-25T13:11:05;12.50;99.90
23783;DHT22;12071;50.850;4.446;2023-04-25T13:13:31;12.60;99.90
23783;DHT22;12071;50.850;4.446;2023-04-25T13:15:58;12.70;99.90
23783;DHT22;12071;50.850;4.446;2023-04-25T13:18:23;12.40;99.90
23783;DHT22;12071;50.850;4.446;2023-04-25T13:20:55;12.20;99.90
23783;DHT22;12071;50.850;4.446;2023-04-25T13:23:21;12.40;99.90
23783;DHT22;12071;50.850;4.446;2023-04-25T13:25:46;12.60;99.90
23783;DHT22;12071;50.850;4.446;2023-04-25T13:28:13;12.60;99.90
23783;DHT22;12071;50.850;4.446;2023-04-25T13:30:39;13.80;99.90
23783;DHT22;12071;50.850;4.446;2023-04-25T13:33:04;14.40;99.90
23783;DHT22;12071;50.850;4.446;2023-04-25T13:35:33;14.90;99.90
23783;DHT22;12071;50.850;4.446;2023-04-25T13:37:59;14.70;99.90
23783;DHT22;12071;50.850;4.446;2023-04-25T13:40:25;15.90;99.90
23783;DHT22;12071;50.850;4.446;2023-04-25T13:42:50;17.90;99.90
23783;DHT22;12071;50.850;4.446;2023-04-25T13:45:16;19.40;10.30
23783;DHT22;12071;50.850;4.446;2023-04-25T13:47:42;19.00;1.00
23783;DHT22;12071;50.850;4.446;2023-04-25T13:50:08;18.70;1.00
23783;DHT22;12071;50.850;4.446;2023-04-25T13:52:35;17.40;1.00
23783;DHT22;12071;50.850;4.446;2023-04-25T13:55:00;15.30;1.00
23783;DHT22;12071;50.850;4.446;2023-04-25T13:57:30;13.70;1.00
23783;DHT22;12071;50.850;4.446;2023-04-25T13:59:55;13.70;1.00
23783;DHT22;12071;50.850;4.446;2023-04-25T14:02:21;15.00;1.00
23783;DHT22;12071;50.850;4.446;2023-04-25T14:04:47;14.60;1.00
23783;DHT22;12071;50.850;4.446;2023-04-25T14:07:13;14.40;1.00
23783;DHT22;12071;50.850;4.446;2023-04-25T14:09:41;14.90;1.00
23783;DHT22;12071;50.850;4.446;2023-04-25T14:12:07;16.50;1.00
23783;DHT22;12071;50.850;4.446;2023-04-25T14:14:32;19.40;1.00
23783;DHT22;12071;50.850;4.446;2023-04-25T14:16:58;19.80;1.00
23783;DHT22;12071;50.850;4.446;2023-04-25T14:19:24;18.50;1.00
23783;DHT22;12071;50.850;4.446;2023-04-25T14:21:50;19.10;1.00
23783;DHT22;12071;50.850;4.446;2023-04-25T14:24:15;18.10;1.00
23783;DHT22;12071;50.850;4.446;2023-04-25T14:26:41;17.10;1.00
23783;DHT22;12071;50.850;4.446;2023-04-25T14:29:08;16.20;1.00
23783;DHT22;12071;50.850;4.446;2023-04-25T14:31:34;16.80;1.00
23783;DHT22;12071;50.850;4.446;2023-04-25T14:34:00;18.20;1.00
23783;DHT22;12071;50.850;4.446;2023-04-25T14:36:27;19.10;1.00
23783;DHT22;12071;50.850;4.446;2023-04-25T14:38:53;19.60;1.00
23783;DHT22;12071;50.850;4.446;2023-04-25T14:41:18;21.10;1.00
23783;DHT22;12071;50.850;4.446;2023-04-25T14:43:44;19.30;1.00
23783;DHT22;12071;50.850;4.446;2023-04-25T14:46:10;18.50;1.00
23783;DHT22;12071;50.850;4.446;2023-04-25T14:48:36;18.00;1.00
23783;DHT22;12071;50.850;4.446;2023-04-25T14:51:02;17.60;1.00
23783;DHT22;12071;50.850;4.446;2023-04-25T14:53:28;16.90;1.00
23783;DHT22;12071;50.850;4.446;2023-04-25T14:55:54;16.30;1.00
23783;DHT22;12071;50.850;4.446;2023-04-25T14:58:20;15.70;1.00
23783;DHT22;12071;50.850;4.446;2023-04-25T15:00:46;15.10;1.00
23783;DHT22;12071;50.850;4.446;2023-04-25T15:03:12;14.80;1.00
23783;DHT22;12071;50.850;4.446;2023-04-25T15:05:39;14.40;1.00
23783;DHT22;12071;50.850;4.446;2023-04-25T15:08:05;14.40;1.00
23783;DHT22;12071;50.850;4.446;2023-04-25T15:10:31;14.70;1.00
23783;DHT22;12071;50.850;4.446;2023-04-25T15:12:57;15.20;1.00
23783;DHT22;12071;50.850;4.446;2023-04-25T15:15:22;15.60;1.00
23783;DHT22;12071;50.850;4.446;2023-04-25T15:17:49;18.30;1.00
23783;DHT22;12071;50.850;4.446;2023-04-25T15:20:14;19.90;1.00
23783;DHT22;12071;50.850;4.446;2023-04-25T15:22:42;21.00;1.00
23783;DHT22;12071;50.850;4.446;2023-04-25T15:25:08;20.70;1.00
23783;DHT22;12071;50.850;4.446;2023-04-25T15:27:35;18.40;1.00
23783;DHT22;12071;50.850;4.446;2023-04-25T15:30:06;16.10;1.00
23783;DHT22;12071;50.850;4.446;2023-04-25T15:32:34;14.90;99.90
23783;DHT22;12071;50.850;4.446;2023-04-25T15:35:05;14.50;1.00
23783;DHT22;12071;50.850;4.446;2023-04-25T15:37:31;15.30;1.00
23783;DHT22;12071;50.850;4.446;2023-04-25T15:42:26;18.30;1.00
23783;DHT22;12071;50.850;4.446;2023-04-25T15:44:52;19.30;1.00
23783;DHT22;12071;50.850;4.446;2023-04-25T15:47:17;19.80;1.00
23783;DHT22;12071;50.850;4.446;2023-04-25T15:49:43;19.20;1.00
23783;DHT22;12071;50.850;4.446;2023-04-25T15:52:09;17.40;1.00
23783;DHT22;12071;50.850;4.446;2023-04-25T15:54:34;17.60;1.00
23783;DHT22;12071;50.850;4.446;2023-04-25T15:57:00;19.10;1.00
23783;DHT22;12071;50.850;4.446;2023-04-25T15:59:26;19.20;1.00
23783;DHT22;12071;50.850;4.446;2023-04-25T16:01:52;18.30;1.00
23783;DHT22;12071;50.850;4.446;2023-04-25T16:04:17;19.00;1.00
23783;DHT22;12071;50.850;4.446;2023-04-25T16:06:43;18.50;1.00
23783;DHT22;12071;50.850;4.446;2023-04-25T16:09:09;19.00;1.00